createdAt,value
2022-10-02T00:01:12.873Z,97757.97
2022-10-02T00:02:32.935Z,97766.02
2022-10-02T00:03:42.651Z,97766.78
2022-10-02T00:05:21.842Z,97766.45
2022-10-02T00:06:28.666Z,97764.84
2022-10-02T00:07:52.571Z,97768.23
2022-10-02T00:09:01.086Z,97772.94
2022-10-02T00:10:52.361Z,97777.42
2022-10-02T00:11:58.236Z,97778.04
2022-10-02T00:13:20.499Z,97777.02
2022-10-02T00:14:25.415Z,97777.77
2022-10-02T00:15:31.237Z,97783.95
2022-10-02T00:16:46.682Z,97779.63
2022-10-02T00:17:54.978Z,97778.16
2022-10-02T00:18:57.673Z,97778.96
2022-10-02T00:19:59.280Z,97776.56
2022-10-02T00:21:15.609Z,97774.42
2022-10-02T00:22:29.506Z,97777.60
2022-10-02T00:23:40.492Z,97772.35
2022-10-02T00:25:07.932Z,97776.23
2022-10-02T00:26:15.411Z,97779.46
2022-10-02T00:27:37.263Z,97778.80
2022-10-02T00:28:55.974Z,97775.23
2022-10-02T00:30:02.196Z,97778.08
2022-10-02T00:31:19.279Z,97777.26
2022-10-02T00:32:56.242Z,97776.50
2022-10-02T00:34:37.971Z,97773.31
2022-10-02T00:36:10.624Z,97773.05
2022-10-02T00:37:28.747Z,97777.92
2022-10-02T00:38:49.006Z,97779.98
2022-10-02T00:40:09.922Z,97777.89
2022-10-02T00:41:17.564Z,97779.36
2022-10-02T00:42:30.012Z,97779.51
2022-10-02T00:44:07.116Z,97779.40
2022-10-02T00:45:34.117Z,97781.88
2022-10-02T00:46:48.656Z,97780.30
2022-10-02T00:48:22.881Z,97782.09
2022-10-02T00:49:39.981Z,97781.92
2022-10-02T00:50:57.953Z,97785.38
2022-10-02T00:52:02.941Z,97786.11
2022-10-02T00:53:30.728Z,97787.71
2022-10-02T00:54:59.027Z,97791.92
2022-10-02T00:56:10.998Z,97795.48
2022-10-02T00:57:29.721Z,97796.39
2022-10-02T00:58:51.024Z,97802.37
2022-10-02T01:00:07.225Z,97802.74
2022-10-02T01:01:16.361Z,97801.18
2022-10-02T01:02:23.919Z,97806.69
2022-10-02T01:03:38.003Z,97808.41
2022-10-02T01:04:41.549Z,97808.33
2022-10-02T01:05:43.730Z,97808.16
2022-10-02T01:06:45.391Z,97810.73
2022-10-02T01:07:51.431Z,97810.61
2022-10-02T01:08:53.546Z,97805.75
2022-10-02T01:09:55.591Z,97811.78
2022-10-02T01:10:57.687Z,97813.21
2022-10-02T01:12:01.069Z,97821.02
2022-10-02T01:13:03.174Z,97818.80
2022-10-02T01:14:04.902Z,97826.14
2022-10-02T01:15:18.710Z,97821.48
2022-10-02T01:16:20.609Z,97827.54
2022-10-02T01:17:33.026Z,97824.40
2022-10-02T01:18:34.882Z,97827.58
2022-10-02T01:19:40.254Z,97823.15
2022-10-02T01:20:48.896Z,97818.55
2022-10-02T01:21:59.864Z,97819.92
2022-10-02T01:23:10.254Z,97820.02
2022-10-02T01:24:25.355Z,97824.78
2022-10-02T01:25:27.117Z,97824.69
2022-10-02T01:26:28.838Z,97824.38
2022-10-02T01:27:36.551Z,97822.95
2022-10-02T01:28:40.937Z,97825.58
2022-10-02T01:29:55.386Z,97822.52
2022-10-02T01:31:04.947Z,97820.75
2022-10-02T01:32:06.594Z,97823.86
2022-10-02T01:33:10.884Z,97825.27
2022-10-02T01:34:12.711Z,97827.70
2022-10-02T01:35:14.641Z,97833.80
2022-10-02T01:36:17.229Z,97832.22
2022-10-02T01:37:22.262Z,97830.20
2022-10-02T01:38:24.711Z,97835.27
2022-10-02T01:39:27.399Z,97833.42
2022-10-02T01:40:35.041Z,97838.99
2022-10-02T01:41:44.372Z,97834.88
2022-10-02T01:42:46.054Z,97841.05
2022-10-02T01:43:55.605Z,97841.84
2022-10-02T01:44:58.401Z,97842.27
2022-10-02T01:46:39.188Z,97837.97
2022-10-02T01:47:54.191Z,97835.77
2022-10-02T01:49:10.902Z,97834.86
2022-10-02T01:50:35.469Z,97837.89
2022-10-02T01:51:58.247Z,97840.11
2022-10-02T01:53:19.115Z,97840.46
2022-10-02T01:54:39.414Z,97840.73
2022-10-02T01:56:10.308Z,97840.52
2022-10-02T01:57:29.326Z,97841.14
2022-10-02T01:58:43.651Z,97843.13
2022-10-02T02:00:08.689Z,97842.23
2022-10-02T02:01:33.354Z,97842.85
2022-10-02T02:02:54.411Z,97844.16
2022-10-02T02:04:11.197Z,97845.66
2022-10-02T02:05:38.873Z,97851.83
2022-10-02T02:06:58.009Z,97851.58
2022-10-02T02:08:20.671Z,97853.91
2022-10-02T02:09:30.330Z,97855.23
2022-10-02T02:11:01.746Z,97857.88
2022-10-02T02:12:15.162Z,97857.89
2022-10-02T02:13:28.578Z,97855.14
2022-10-02T02:14:36.537Z,97855.90
2022-10-02T02:16:10.798Z,97859.59
2022-10-02T02:17:23.806Z,97857.96
2022-10-02T02:18:33.918Z,97860.98
2022-10-02T02:19:48.730Z,97862.27
2022-10-02T02:20:55.809Z,97860.22
2022-10-02T02:22:07.803Z,97861.90
2022-10-02T02:23:17.332Z,97863.20
2022-10-02T02:24:31.415Z,97863.31
2022-10-02T02:25:40.612Z,97865.96
2022-10-02T02:26:47.076Z,97864.76
2022-10-02T02:27:55.131Z,97867.79
2022-10-02T02:29:03.451Z,97866.02
2022-10-02T02:30:12.092Z,97864.54
2022-10-02T02:31:21.477Z,97867.66
2022-10-02T02:32:30.659Z,97869.36
2022-10-02T02:33:42.932Z,97870.55
2022-10-02T02:34:52.723Z,97868.39
2022-10-02T02:35:59.945Z,97873.53
2022-10-02T02:37:16.596Z,97873.92
2022-10-02T02:38:36.841Z,97874.95
2022-10-02T02:39:50.448Z,97874.98
2022-10-02T02:40:52.755Z,97878.02
2022-10-02T02:42:03.019Z,97876.23
2022-10-02T02:43:10.926Z,97877.80
2022-10-02T02:44:22.217Z,97876.32
2022-10-02T02:45:41.448Z,97878.92
2022-10-02T02:47:03.548Z,97874.85
2022-10-02T02:48:19.944Z,97875.39
2022-10-02T02:49:27.052Z,97877.34
2022-10-02T02:50:48.004Z,97879.45
2022-10-02T02:51:53.013Z,97879.14
2022-10-02T02:53:15.271Z,97877.28
2022-10-02T02:54:24.292Z,97879.48
2022-10-02T02:55:32.871Z,97876.24
2022-10-02T02:56:36.286Z,97878.49
2022-10-02T02:57:45.911Z,97879.14
2022-10-02T02:58:52.507Z,97879.36
2022-10-02T02:59:59.078Z,97879.57
2022-10-02T03:01:00.787Z,97883.19
2022-10-02T03:02:02.633Z,97885.98
2022-10-02T03:03:04.611Z,97884.70
2022-10-02T03:04:07.001Z,97889.08
2022-10-02T03:05:18.368Z,97887.76
2022-10-02T03:06:38.258Z,97889.63
2022-10-02T03:07:49.016Z,97888.79
2022-10-02T03:08:53.332Z,97892.15
2022-10-02T03:10:12.831Z,97893.61
2022-10-02T03:11:35.476Z,97893.90
2022-10-02T03:12:58.127Z,97895.98
2022-10-02T03:14:31.779Z,97896.50
2022-10-02T03:15:53.064Z,97897.37
2022-10-02T03:17:03.123Z,97900.98
2022-10-02T03:18:31.104Z,97901.35
2022-10-02T03:19:50.466Z,97902.12
2022-10-02T03:21:00.711Z,97906.54
2022-10-02T03:22:22.977Z,97902.33
2022-10-02T03:23:35.753Z,97903.42
2022-10-02T03:24:56.937Z,97899.59
2022-10-02T03:26:21.436Z,97900.39
2022-10-02T03:28:01.124Z,97901.42
2022-10-02T03:29:10.857Z,97902.11
2022-10-02T03:30:15.826Z,97902.70
2022-10-02T03:31:21.939Z,97902.40
2022-10-02T03:32:26.417Z,97899.48
2022-10-02T03:33:33.156Z,97902.06
2022-10-02T03:34:37.701Z,97897.27
2022-10-02T03:35:41.379Z,97896.86
2022-10-02T03:36:46.743Z,97898.26
2022-10-02T03:37:56.138Z,97898.64
2022-10-02T03:40:26.304Z,97896.85
2022-10-02T03:41:27.932Z,97898.88
2022-10-02T03:42:34.736Z,97901.30
2022-10-02T03:43:36.714Z,97902.46
2022-10-02T03:44:38.323Z,97900.73
2022-10-02T03:45:50.867Z,97899.58
2022-10-02T03:46:53.418Z,97900.88
2022-10-02T03:47:55.122Z,97904.23
2022-10-02T03:48:56.748Z,97902.77
2022-10-02T03:49:58.844Z,97907.08
2022-10-02T03:51:00.449Z,97904.28
2022-10-02T03:52:02.065Z,97905.51
2022-10-02T03:53:13.394Z,97906.52
2022-10-02T03:54:21.425Z,97907.88
2022-10-02T03:55:40.503Z,97908.16
2022-10-02T03:56:54.958Z,97907.30
2022-10-02T03:57:57.391Z,97905.23
2022-10-02T03:59:03.403Z,97910.84
2022-10-02T04:00:14.699Z,97912.34
2022-10-02T04:01:23.855Z,97909.15
2022-10-02T04:02:46.415Z,97915.19
2022-10-02T04:03:54.188Z,97917.63
2022-10-02T04:05:30.631Z,97914.86
2022-10-02T04:06:45.778Z,97916.38
2022-10-02T04:07:54.538Z,97916.70
2022-10-02T04:09:14.764Z,97915.24
2022-10-02T04:10:29.612Z,97917.92
2022-10-02T04:11:40.524Z,97922.11
2022-10-02T04:12:50.481Z,97924.17
2022-10-02T04:14:20.168Z,97922.40
2022-10-02T04:15:32.729Z,97919.27
2022-10-02T04:16:47.558Z,97923.23
2022-10-02T04:17:59.270Z,97920.48
2022-10-02T04:19:26.213Z,97927.17
2022-10-02T04:20:44.876Z,97928.36
2022-10-02T04:21:59.587Z,97929.54
2022-10-02T04:23:15.078Z,97926.08
2022-10-02T04:24:44.581Z,97930.88
2022-10-02T04:25:53.056Z,97929.04
2022-10-02T04:27:14.606Z,97937.67
2022-10-02T04:28:22.581Z,97936.00
2022-10-02T04:29:32.488Z,97933.46
2022-10-02T04:30:34.097Z,97942.68
2022-10-02T04:31:35.807Z,97940.85
2022-10-02T04:32:37.605Z,97944.58
2022-10-02T04:33:40.400Z,97948.30
2022-10-02T04:34:43.488Z,97948.79
2022-10-02T04:36:10.170Z,97949.61
2022-10-02T04:37:49.283Z,97944.77
2022-10-02T04:39:06.673Z,97956.63
2022-10-02T04:40:31.700Z,97956.86
2022-10-02T04:41:45.430Z,97957.81
2022-10-02T04:43:18.851Z,97960.67
2022-10-02T04:44:46.870Z,97957.20
2022-10-02T04:46:08.229Z,97962.55
2022-10-02T04:47:24.813Z,97963.69
2022-10-02T04:49:03.843Z,97963.59
2022-10-02T04:50:39.350Z,97965.17
2022-10-02T04:52:29.135Z,97969.71
2022-10-02T04:53:52.319Z,97969.40
2022-10-02T04:55:02.296Z,97970.48
2022-10-02T04:56:24.990Z,97969.96
2022-10-02T04:58:04.060Z,97974.23
2022-10-02T04:59:35.520Z,97979.59
2022-10-02T05:00:53.882Z,97981.21
2022-10-02T05:02:22.615Z,97981.34
2022-10-02T05:03:48.428Z,97987.11
2022-10-02T05:05:24.114Z,97992.27
2022-10-02T05:06:42.967Z,97993.40
2022-10-02T05:08:22.266Z,97995.41
2022-10-02T05:09:43.005Z,97991.45
2022-10-02T05:11:11.719Z,97997.15
2022-10-02T05:12:31.701Z,97998.23
2022-10-02T05:13:52.280Z,98003.20
2022-10-02T05:15:09.551Z,98002.77
2022-10-02T05:16:14.054Z,97997.52
2022-10-02T05:17:34.753Z,98001.67
2022-10-02T05:19:01.805Z,98002.52
2022-10-02T05:20:34.565Z,98004.71
2022-10-02T05:21:49.207Z,98004.23
2022-10-02T05:23:11.204Z,98008.15
2022-10-02T05:25:03.959Z,98011.12
2022-10-02T05:26:24.422Z,98014.31
2022-10-02T05:27:42.326Z,98015.23
2022-10-02T05:28:59.486Z,98012.41
2022-10-02T05:30:20.071Z,98015.39
2022-10-02T05:31:40.308Z,98018.46
2022-10-02T05:33:03.004Z,98020.29
2022-10-02T05:34:07.441Z,98021.85
2022-10-02T05:35:20.753Z,98016.94
2022-10-02T05:36:43.393Z,98020.54
2022-10-02T05:38:09.658Z,98018.83
2022-10-02T05:39:57.487Z,98021.95
2022-10-02T05:41:20.181Z,98025.05
2022-10-02T05:42:32.859Z,98027.45
2022-10-02T05:43:44.691Z,98026.70
2022-10-02T05:45:04.186Z,98029.66
2022-10-02T05:46:13.154Z,98030.16
2022-10-02T05:47:28.926Z,98034.73
2022-10-02T05:48:42.354Z,98027.89
2022-10-02T05:50:21.450Z,98034.39
2022-10-02T05:51:51.815Z,98036.52
2022-10-02T05:53:00.403Z,98033.27
2022-10-02T05:54:20.782Z,98036.11
2022-10-02T05:55:28.143Z,98033.25
2022-10-02T05:56:39.954Z,98033.02
2022-10-02T05:57:52.551Z,98037.95
2022-10-02T05:59:09.729Z,98039.81
2022-10-02T06:00:39.025Z,98043.30
2022-10-02T06:01:47.135Z,98043.74
2022-10-02T06:03:09.161Z,98044.66
2022-10-02T06:04:33.890Z,98045.09
2022-10-02T06:05:55.559Z,98048.23
2022-10-02T06:07:07.294Z,98049.80
2022-10-02T06:08:16.434Z,98056.27
2022-10-02T06:09:31.360Z,98056.42
2022-10-02T06:10:45.540Z,98058.72
2022-10-02T06:11:59.343Z,98058.66
2022-10-02T06:13:40.005Z,98057.58
2022-10-02T06:14:58.978Z,98060.20
2022-10-02T06:16:28.613Z,98057.33
2022-10-02T06:17:40.868Z,98062.45
2022-10-02T06:18:49.670Z,98061.59
2022-10-02T06:19:57.018Z,98062.17
2022-10-02T06:21:10.691Z,98063.01
2022-10-02T06:22:21.158Z,98064.46
2022-10-02T06:23:32.214Z,98067.92
2022-10-02T06:24:48.214Z,98068.39
2022-10-02T06:25:59.302Z,98071.20
2022-10-02T06:27:10.540Z,98069.71
2022-10-02T06:28:30.328Z,98066.46
2022-10-02T06:29:42.679Z,98069.11
2022-10-02T06:31:15.235Z,98075.05
2022-10-02T06:32:37.479Z,98075.39
2022-10-02T06:33:39.269Z,98069.29
2022-10-02T06:34:44.560Z,98074.30
2022-10-02T06:36:08.616Z,98074.13
2022-10-02T06:37:36.527Z,98075.38
2022-10-02T06:39:02.379Z,98075.95
2022-10-02T06:40:31.362Z,98077.10
2022-10-02T06:41:51.790Z,98076.51
2022-10-02T06:43:21.321Z,98079.27
2022-10-02T06:44:32.114Z,98079.87
2022-10-02T06:46:00.642Z,98077.35
2022-10-02T06:47:37.458Z,98080.90
2022-10-02T06:48:46.180Z,98078.41
2022-10-02T06:50:19.341Z,98077.81
2022-10-02T06:51:30.489Z,98077.63
2022-10-02T06:52:51.465Z,98077.83
2022-10-02T06:53:58.923Z,98072.98
2022-10-02T06:55:22.010Z,98072.09
2022-10-02T06:56:51.285Z,98069.44
2022-10-02T06:58:27.064Z,98069.46
2022-10-02T06:59:48.888Z,98072.69
2022-10-02T07:01:03.079Z,98075.66
2022-10-02T07:02:34.930Z,98082.16
2022-10-02T07:03:55.153Z,98075.80
2022-10-02T07:05:24.402Z,98081.04
2022-10-02T07:06:57.167Z,98084.23
2022-10-02T07:08:13.914Z,98085.64
2022-10-02T07:09:54.438Z,98082.61
2022-10-02T07:11:25.164Z,98083.06
2022-10-02T07:12:47.960Z,98085.05
2022-10-02T07:14:07.947Z,98083.00
2022-10-02T07:15:38.395Z,98087.88
2022-10-02T07:16:54.540Z,98095.30
2022-10-02T07:18:19.520Z,98093.25
2022-10-02T07:19:54.992Z,98092.25
2022-10-02T07:21:07.772Z,98092.80
2022-10-02T07:22:45.781Z,98097.14
2022-10-02T07:24:04.884Z,98096.23
2022-10-02T07:25:44.779Z,98102.06
2022-10-02T07:27:15.646Z,98105.33
2022-10-02T07:28:38.251Z,98109.72
2022-10-02T07:30:16.188Z,98109.20
2022-10-02T07:31:40.400Z,98109.81
2022-10-02T07:32:50.282Z,98111.88
2022-10-02T07:34:03.372Z,98113.17
2022-10-02T07:35:22.013Z,98109.05
2022-10-02T07:36:35.843Z,98113.05
2022-10-02T07:38:02.407Z,98110.90
2022-10-02T07:39:20.187Z,98111.39
2022-10-02T07:40:21.850Z,98113.91
2022-10-02T07:41:38.562Z,98110.98
2022-10-02T07:42:54.699Z,98112.11
2022-10-02T07:44:19.442Z,98117.81
2022-10-02T07:45:43.905Z,98117.55
2022-10-02T07:47:07.465Z,98119.52
2022-10-02T07:48:41.589Z,98121.33
2022-10-02T07:50:22.568Z,98122.55
2022-10-02T07:51:50.228Z,98118.55
2022-10-02T07:53:16.647Z,98118.45
2022-10-02T07:54:50.665Z,98118.67
2022-10-02T07:55:56.024Z,98118.46
2022-10-02T07:57:10.044Z,98115.16
2022-10-02T07:58:19.492Z,98112.92
2022-10-02T07:59:21.857Z,98114.28
2022-10-02T08:00:25.637Z,98118.08
2022-10-02T08:01:33.557Z,98109.85
2022-10-02T08:02:50.193Z,98112.90
2022-10-02T08:03:57.692Z,98114.23
2022-10-02T08:05:05.941Z,98114.70
2022-10-02T08:06:08.914Z,98116.34
2022-10-02T08:07:11.557Z,98111.89
2022-10-02T08:08:26.097Z,98119.84
2022-10-02T08:09:37.686Z,98112.22
2022-10-02T08:10:45.590Z,98116.36
2022-10-02T08:11:54.931Z,98112.78
2022-10-02T08:13:20.439Z,98115.04
2022-10-02T08:14:38.701Z,98115.53
2022-10-02T08:15:47.199Z,98115.04
2022-10-02T08:16:52.891Z,98111.23
2022-10-02T08:18:22.890Z,98110.39
2022-10-02T08:19:39.284Z,98117.98
2022-10-02T08:20:44.363Z,98113.19
2022-10-02T08:21:55.673Z,98114.09
2022-10-02T08:23:21.604Z,98112.29
2022-10-02T08:24:41.142Z,98113.34
2022-10-02T08:25:52.344Z,98111.98
2022-10-02T08:27:02.224Z,98115.08
2022-10-02T08:28:18.178Z,98107.55
2022-10-02T08:29:28.658Z,98116.23
2022-10-02T08:30:30.367Z,98109.05
2022-10-02T08:31:33.312Z,98111.23
2022-10-02T08:32:36.877Z,98117.33
2022-10-02T08:33:39.296Z,98115.10
2022-10-02T08:34:42.511Z,98121.59
2022-10-02T08:35:55.967Z,98117.20
2022-10-02T08:37:18.983Z,98112.41
2022-10-02T08:38:38.905Z,98118.89
2022-10-02T08:40:05.236Z,98117.94
2022-10-02T08:41:49.547Z,98115.52
2022-10-02T08:43:00.165Z,98113.77
2022-10-02T08:44:05.865Z,98115.32
2022-10-02T08:45:47.745Z,98118.23
2022-10-02T08:46:58.230Z,98117.18
2022-10-02T08:48:16.749Z,98120.66
2022-10-02T08:49:39.249Z,98111.41
2022-10-02T08:51:00.846Z,98113.79
2022-10-02T08:52:42.383Z,98114.65
2022-10-02T08:54:30.264Z,98114.72
2022-10-02T08:56:03.093Z,98118.27
2022-10-02T08:57:34.547Z,98112.70
2022-10-02T08:58:57.965Z,98112.91
2022-10-02T09:00:23.085Z,98109.08
2022-10-02T09:01:43.409Z,98117.73
2022-10-02T09:03:30.017Z,98116.80
2022-10-02T09:04:51.515Z,98107.35
2022-10-02T09:06:31.137Z,98106.34
2022-10-02T09:08:09.591Z,98106.17
2022-10-02T09:09:14.142Z,98103.20
2022-10-02T09:10:52.087Z,98102.63
2022-10-02T09:12:02.535Z,98102.79
2022-10-02T09:13:27.508Z,98098.66
2022-10-02T09:14:56.834Z,98094.66
2022-10-02T09:16:17.501Z,98095.01
2022-10-02T09:17:45.568Z,98096.08
2022-10-02T09:19:00.009Z,98091.70
2022-10-02T09:20:04.686Z,98091.33
2022-10-02T09:21:38.805Z,98089.56
2022-10-02T09:23:12.254Z,98090.44
2022-10-02T09:24:50.680Z,98086.45
2022-10-02T09:26:17.189Z,98088.35
2022-10-02T09:27:59.593Z,98088.56
2022-10-02T09:30:01.126Z,98091.39
2022-10-02T09:31:40.203Z,98084.55
2022-10-02T09:32:58.886Z,98086.17
2022-10-02T09:34:42.808Z,98085.77
2022-10-02T09:36:19.021Z,98089.41
2022-10-02T09:37:44.054Z,98090.84
2022-10-02T09:39:03.860Z,98089.19
2022-10-02T09:40:40.019Z,98085.82
2022-10-02T09:42:30.753Z,98093.10
2022-10-02T09:43:45.773Z,98089.59
2022-10-02T09:45:36.531Z,98089.70
2022-10-02T09:47:05.794Z,98093.27
2022-10-02T09:48:45.261Z,98098.10
2022-10-02T09:50:28.066Z,98098.59
2022-10-02T09:52:06.520Z,98098.57
2022-10-02T09:54:02.504Z,98100.52
2022-10-02T09:55:50.085Z,98101.95
2022-10-02T09:57:17.203Z,98101.19
2022-10-02T09:58:44.077Z,98102.22
2022-10-02T10:00:11.982Z,98105.57
2022-10-02T10:02:00.013Z,98104.66
2022-10-02T10:03:27.758Z,98099.70
2022-10-02T10:05:05.150Z,98100.55
2022-10-02T10:06:26.919Z,98105.98
2022-10-02T10:08:05.396Z,98106.03
2022-10-02T10:09:25.867Z,98103.65
2022-10-02T10:10:39.856Z,98102.70
2022-10-02T10:12:00.501Z,98098.75
2022-10-02T10:13:23.655Z,98097.23
2022-10-02T10:14:29.270Z,98099.44
2022-10-02T10:15:40.677Z,98095.80
2022-10-02T10:17:05.815Z,98096.21
2022-10-02T10:18:43.361Z,98094.42
2022-10-02T10:20:00.209Z,98103.53
2022-10-02T10:21:39.294Z,98097.27
2022-10-02T10:22:44.012Z,98098.04
2022-10-02T10:24:24.591Z,98095.92
2022-10-02T10:25:50.397Z,98096.44
2022-10-02T10:27:10.851Z,98090.40
2022-10-02T10:28:50.485Z,98095.05
2022-10-02T10:30:29.761Z,98087.09
2022-10-02T10:32:05.154Z,98089.39
2022-10-02T10:33:44.498Z,98085.79
2022-10-02T10:35:09.363Z,98090.44
2022-10-02T10:36:48.877Z,98093.46
2022-10-02T10:38:33.147Z,98093.96
2022-10-02T10:39:59.466Z,98095.33
2022-10-02T10:41:19.337Z,98093.06
2022-10-02T10:42:56.388Z,98093.75
2022-10-02T10:44:24.585Z,98098.08
2022-10-02T10:45:41.119Z,98096.23
2022-10-02T10:47:03.997Z,98100.18
2022-10-02T10:48:33.906Z,98095.34
2022-10-02T10:50:02.351Z,98098.42
2022-10-02T10:51:22.706Z,98101.30
2022-10-02T10:52:45.673Z,98096.60
2022-10-02T10:54:22.800Z,98099.73
2022-10-02T10:55:30.255Z,98100.06
2022-10-02T10:56:46.248Z,98103.73
2022-10-02T10:58:08.679Z,98100.92
2022-10-02T10:59:55.032Z,98102.91
2022-10-02T11:01:16.723Z,98104.73
2022-10-02T11:02:44.680Z,98104.27
2022-10-02T11:04:14.150Z,98105.23
2022-10-02T11:05:53.421Z,98100.92
2022-10-02T11:07:10.249Z,98104.02
2022-10-02T11:08:38.746Z,98098.98
2022-10-02T11:10:16.428Z,98100.83
2022-10-02T11:11:39.635Z,98103.55
2022-10-02T11:13:01.005Z,98101.97
2022-10-02T11:14:41.556Z,98102.20
2022-10-02T11:16:17.474Z,98096.48
2022-10-02T11:17:27.888Z,98087.50
2022-10-02T11:19:00.110Z,98090.23
2022-10-02T11:20:34.986Z,98089.95
2022-10-02T11:22:02.247Z,98087.42
2022-10-02T11:23:43.100Z,98086.23
2022-10-02T11:25:19.606Z,98081.46
2022-10-02T11:26:39.996Z,98079.38
2022-10-02T11:28:06.212Z,98076.83
2022-10-02T11:29:34.041Z,98075.80
2022-10-02T11:31:07.365Z,98079.25
2022-10-02T11:32:32.487Z,98076.39
2022-10-02T11:33:52.282Z,98075.02
2022-10-02T11:35:23.391Z,98069.98
2022-10-02T11:36:43.076Z,98068.80
2022-10-02T11:38:15.197Z,98062.39
2022-10-02T11:39:41.354Z,98058.70
2022-10-02T11:41:15.983Z,98053.29
2022-10-02T11:42:43.064Z,98048.02
2022-10-02T11:44:00.325Z,98045.88
2022-10-02T11:45:41.799Z,98046.09
2022-10-02T11:47:20.781Z,98054.55
2022-10-02T11:48:33.139Z,98055.74
2022-10-02T11:49:47.848Z,98056.64
2022-10-02T11:50:59.485Z,98054.88
2022-10-02T11:52:36.810Z,98062.60
2022-10-02T11:53:57.784Z,98064.88
2022-10-02T11:55:18.328Z,98064.45
2022-10-02T11:57:02.367Z,98054.17
2022-10-02T11:58:22.388Z,98055.43
2022-10-02T11:59:41.138Z,98051.16
2022-10-02T12:01:21.938Z,98048.91
2022-10-02T12:02:41.512Z,98048.02
2022-10-02T12:04:09.466Z,98046.48
2022-10-02T12:05:43.278Z,98045.89
2022-10-02T12:07:19.112Z,98048.23
2022-10-02T12:08:41.166Z,98047.48
2022-10-02T12:09:54.623Z,98041.70
2022-10-02T12:11:15.075Z,98040.75
2022-10-02T12:12:58.973Z,98041.98
2022-10-02T12:14:14.473Z,98041.30
2022-10-02T12:15:40.098Z,98047.57
2022-10-02T12:17:06.542Z,98045.63
2022-10-02T12:18:23.608Z,98049.36
2022-10-02T12:20:01.694Z,98044.61
2022-10-02T12:21:39.378Z,98041.00
2022-10-02T12:23:15.978Z,98043.55
2022-10-02T12:25:02.436Z,98036.88
2022-10-02T12:26:55.036Z,98042.98
2022-10-02T12:28:27.592Z,98045.73
2022-10-02T12:29:41.320Z,98050.48
2022-10-02T12:30:55.013Z,98049.81
2022-10-02T12:32:11.637Z,98048.39
2022-10-02T12:33:22.342Z,98051.24
2022-10-02T12:34:46.208Z,98049.12
2022-10-02T12:36:08.535Z,98049.70
2022-10-02T12:37:23.119Z,98045.97
2022-10-02T12:38:40.724Z,98043.67
2022-10-02T12:40:03.864Z,98046.30
2022-10-02T12:41:34.401Z,98044.30
2022-10-02T12:42:50.110Z,98044.75
2022-10-02T12:44:06.998Z,98034.75
2022-10-02T12:45:35.961Z,98041.95
2022-10-02T12:47:05.638Z,98042.20
2022-10-02T12:48:23.908Z,98044.98
2022-10-02T12:49:37.508Z,98045.78
2022-10-02T12:51:12.847Z,98043.10
2022-10-02T12:52:28.273Z,98040.63
2022-10-02T12:53:51.289Z,98041.17
2022-10-02T12:55:16.690Z,98041.53
2022-10-02T12:56:59.043Z,98038.67
2022-10-02T12:58:25.423Z,98033.23
2022-10-02T12:59:49.517Z,98032.45
2022-10-02T13:00:54.032Z,98031.66
2022-10-02T13:02:07.026Z,98032.32
2022-10-02T13:03:27.166Z,98030.92
2022-10-02T13:04:50.014Z,98028.16
2022-10-02T13:06:02.128Z,98024.48
2022-10-02T13:07:31.638Z,98018.91
2022-10-02T13:09:28.083Z,98017.10
2022-10-02T13:10:47.808Z,98014.44
2022-10-02T13:12:16.280Z,98013.73
2022-10-02T13:13:50.456Z,98010.45
2022-10-02T13:15:22.074Z,98006.41
2022-10-02T13:16:49.851Z,98008.70
2022-10-02T13:18:09.874Z,98010.89
2022-10-02T13:19:30.407Z,98005.89
2022-10-02T13:20:39.006Z,98006.69
2022-10-02T13:22:01.724Z,97999.34
2022-10-02T13:23:36.868Z,97996.61
2022-10-02T13:24:55.722Z,98004.77
2022-10-02T13:26:16.575Z,97999.84
2022-10-02T13:27:44.359Z,97998.12
2022-10-02T13:29:09.418Z,98002.30
2022-10-02T13:30:20.458Z,98003.91
2022-10-02T13:31:37.553Z,97999.19
2022-10-02T13:33:06.216Z,97998.48
2022-10-02T13:34:40.539Z,97996.86
2022-10-02T13:35:50.293Z,97999.42
2022-10-02T13:37:09.079Z,97998.11
2022-10-02T13:38:36.119Z,97993.71
2022-10-02T13:40:12.689Z,97990.55
2022-10-02T13:41:31.142Z,97987.09
2022-10-02T13:42:50.961Z,97991.05
2022-10-02T13:44:22.254Z,97992.02
2022-10-02T13:45:30.211Z,97996.88
2022-10-02T13:47:17.033Z,97997.55
2022-10-02T13:48:31.399Z,97987.98
2022-10-02T13:49:54.133Z,97989.88
2022-10-02T13:51:13.688Z,97989.44
2022-10-02T13:52:43.115Z,97986.55
2022-10-02T13:54:18.227Z,97986.88
2022-10-02T13:55:25.705Z,97984.92
2022-10-02T13:56:54.818Z,97989.62
2022-10-02T13:58:23.654Z,97987.76
2022-10-02T13:59:53.902Z,97987.41
2022-10-02T14:01:37.696Z,97986.36
2022-10-02T14:02:58.722Z,97980.21
2022-10-02T14:04:27.323Z,97975.04
2022-10-02T14:05:31.888Z,97974.32
2022-10-02T14:06:44.634Z,97974.05
2022-10-02T14:08:16.860Z,97973.24
2022-10-02T14:09:36.177Z,97967.88
2022-10-02T14:10:53.444Z,97970.26
2022-10-02T14:12:17.230Z,97965.22
2022-10-02T14:13:42.313Z,97965.41
2022-10-02T14:15:06.411Z,97965.98
2022-10-02T14:16:26.179Z,97964.99
2022-10-02T14:17:53.847Z,97968.38
2022-10-02T14:19:24.464Z,97973.48
2022-10-02T14:20:44.345Z,97968.77
2022-10-02T14:21:57.718Z,97966.23
2022-10-02T14:23:06.713Z,97968.92
2022-10-02T14:24:22.853Z,97970.02
2022-10-02T14:25:35.945Z,97969.85
2022-10-02T14:26:43.650Z,97972.54
2022-10-02T14:27:54.364Z,97967.20
2022-10-02T14:29:32.133Z,97964.71
2022-10-02T14:31:07.891Z,97966.48
2022-10-02T14:32:48.645Z,97967.02
2022-10-02T14:34:05.775Z,97964.54
2022-10-02T14:35:44.201Z,97968.63
2022-10-02T14:37:16.796Z,97963.65
2022-10-02T14:38:39.883Z,97963.75
2022-10-02T14:39:42.659Z,97964.76
2022-10-02T14:41:18.106Z,97967.14
2022-10-02T14:42:33.030Z,97973.93
2022-10-02T14:43:59.679Z,97972.48
2022-10-02T14:45:21.599Z,97969.58
2022-10-02T14:46:54.367Z,97970.60
2022-10-02T14:48:24.956Z,97967.23
2022-10-02T14:49:41.849Z,97970.79
2022-10-02T14:51:14.973Z,97966.18
2022-10-02T14:53:02.201Z,97970.20
2022-10-02T14:54:17.675Z,97973.64
2022-10-02T14:56:03.386Z,97975.16
2022-10-02T14:57:53.216Z,97977.98
2022-10-02T14:59:16.110Z,97977.73
2022-10-02T15:00:24.425Z,97977.80
2022-10-02T15:01:26.895Z,97974.86
2022-10-02T15:02:40.500Z,97977.64
2022-10-02T15:04:11.746Z,97974.29
2022-10-02T15:05:46.641Z,97969.33
2022-10-02T15:07:04.342Z,97971.27
2022-10-02T15:08:35.049Z,97974.30
2022-10-02T15:09:51.668Z,97976.80
2022-10-02T15:10:53.976Z,97971.29
2022-10-02T15:12:05.725Z,97971.05
2022-10-02T15:13:28.410Z,97969.11
2022-10-02T15:14:47.776Z,97971.73
2022-10-02T15:16:17.926Z,97967.66
2022-10-02T15:17:56.751Z,97967.30
2022-10-02T15:19:07.287Z,97962.88
2022-10-02T15:20:47.649Z,97962.89
2022-10-02T15:22:06.987Z,97961.27
2022-10-02T15:23:24.456Z,97963.77
2022-10-02T15:24:55.117Z,97962.07
2022-10-02T15:26:34.246Z,97963.20
2022-10-02T15:28:08.047Z,97959.75
2022-10-02T15:29:46.281Z,97956.52
2022-10-02T15:31:12.215Z,97960.65
2022-10-02T15:32:51.589Z,97965.93
2022-10-02T15:34:33.494Z,97967.04
2022-10-02T15:35:54.579Z,97969.31
2022-10-02T15:37:10.570Z,97968.29
2022-10-02T15:38:27.200Z,97964.89
2022-10-02T15:39:52.272Z,97965.05
2022-10-02T15:41:16.707Z,97963.39
2022-10-02T15:42:42.250Z,97964.33
2022-10-02T15:44:09.967Z,97962.67
2022-10-02T15:45:24.046Z,97971.54
2022-10-02T15:46:54.498Z,97970.14